Time;durP1;ratioP1;P1;durP2;ratioP2;P2;SDS_P1;SDS_P2;PMS_P1;PMS_P2;Temp;Humidity;BMP_temperature;BMP_pressure;BME280_temperature;BME280_humidity;BME280_pressure;Samples;Min_cycle;Max_cycle;Signal;HPM_P1;HPM_P2
2020/12/28 00:01:31;;;;;;;1.50;0.90;;;3.40;99.90;;;;;;4973247;28;20450;-76
2020/12/28 00:03:56;;;;;;;1.73;1.23;;;3.40;99.90;;;;;;4981726;28;20468;-76
2020/12/28 00:06:22;;;;;;;1.10;0.83;;;3.40;99.90;;;;;;4973611;28;20458;-76
2020/12/28 00:08:48;;;;;;;1.73;0.90;;;3.40;99.90;;;;;;4963661;28;20198;-77
2020/12/28 00:11:17;;;;;;;1.10;0.80;;;3.40;99.90;;;;;;4977041;28;20909;-76
2020/12/28 00:13:46;;;;;;;1.43;1.00;;;3.40;99.90;;;;;;4977926;28;20185;-76
2020/12/28 00:16:15;;;;;;;1.60;0.80;;;3.30;99.90;;;;;;4981088;28;20478;-75
2020/12/28 00:18:41;;;;;;;1.20;0.70;;;3.30;99.90;;;;;;4975127;28;20466;-75
2020/12/28 00:21:08;;;;;;;1.00;0.83;;;3.30;99.90;;;;;;4985374;28;20811;-76
2020/12/28 00:23:34;;;;;;;1.60;0.90;;;3.30;99.90;;;;;;4996413;28;20605;-76
2020/12/28 00:26:00;;;;;;;1.40;0.93;;;3.30;99.90;;;;;;4984430;28;20886;-75
2020/12/28 00:28:26;;;;;;;1.10;0.90;;;3.30;99.90;;;;;;4980461;28;21763;-77
2020/12/28 00:30:52;;;;;;;1.37;0.90;;;3.20;99.90;;;;;;4982531;28;20285;-77
2020/12/28 00:33:17;;;;;;;0.90;0.70;;;3.20;99.90;;;;;;4983270;28;20184;-76
2020/12/28 00:35:44;;;;;;;1.90;1.13;;;3.20;99.90;;;;;;4978234;28;21003;-77
2020/12/28 00:38:10;;;;;;;1.00;0.87;;;3.20;99.90;;;;;;4970285;28;20922;-76
2020/12/28 00:40:35;;;;;;;1.30;1.10;;;3.20;99.90;;;;;;4971517;28;20895;-76
2020/12/28 00:43:01;;;;;;;1.33;0.90;;;3.20;99.90;;;;;;4973664;28;20457;-76
2020/12/28 00:45:27;;;;;;;1.13;0.90;;;3.20;99.90;;;;;;4972288;28;20185;-76
2020/12/28 00:47:52;;;;;;;1.87;0.90;;;3.20;99.90;;;;;;4964851;28;20202;-76
2020/12/28 00:50:18;;;;;;;1.67;1.13;;;3.20;99.90;;;;;;4968277;28;20188;-75
2020/12/28 00:52:44;;;;;;;1.53;0.83;;;3.20;99.90;;;;;;4977093;28;20247;-77
2020/12/28 00:55:09;;;;;;;1.10;0.90;;;3.20;99.90;;;;;;4983650;28;20204;-75
2020/12/28 00:57:36;;;;;;;1.60;1.17;;;3.20;99.90;;;;;;4968054;28;21432;-76
2020/12/28 01:00:07;;;;;;;1.20;1.00;;;3.20;99.90;;;;;;5012770;28;20890;-75
2020/12/28 01:02:42;;;;;;;1.50;0.90;;;3.20;99.90;;;;;;4972398;28;20450;-75
2020/12/28 01:05:14;;;;;;;1.37;0.87;;;3.30;99.90;;;;;;4994395;28;20457;-75
2020/12/28 01:07:41;;;;;;;1.10;0.80;;;3.30;99.90;;;;;;4989625;28;20532;-75
2020/12/28 01:10:37;;;;;;;1.03;0.87;;;3.30;99.90;;;;;;4983716;28;20457;-77
2020/12/28 01:13:07;;;;;;;1.20;1.00;;;3.30;99.90;;;;;;4970318;28;23277;-77
2020/12/28 01:15:34;;;;;;;3.23;1.10;;;3.30;99.90;;;;;;4966949;28;20486;-77
2020/12/28 01:17:59;;;;;;;0.90;0.80;;;3.30;99.90;;;;;;4957910;28;20984;-76
2020/12/28 01:20:36;;;;;;;1.10;0.90;;;3.40;99.90;;;;;;4977014;28;20606;-76
2020/12/28 01:23:02;;;;;;;0.90;0.80;;;3.30;99.90;;;;;;4976760;28;20445;-77
2020/12/28 01:25:36;;;;;;;1.10;0.80;;;3.40;99.90;;;;;;5004145;28;20927;-76
2020/12/28 01:28:02;;;;;;;1.53;1.00;;;3.40;99.90;;;;;;4975021;28;20462;-76
2020/12/28 01:30:31;;;;;;;1.40;1.00;;;3.40;99.90;;;;;;4964983;28;21123;-76
2020/12/28 01:33:14;;;;;;;1.60;1.10;;;3.50;99.90;;;;;;4965165;28;20971;-76
2020/12/28 01:35:52;;;;;;;3.00;0.90;;;3.40;99.90;;;;;;4983683;28;20485;-76
2020/12/28 01:38:18;;;;;;;3.03;1.20;;;3.40;99.90;;;;;;4974853;28;20746;-75
2020/12/28 01:40:43;;;;;;;1.30;1.20;;;3.40;99.90;;;;;;4980460;28;20211;-75
2020/12/28 01:43:29;;;;;;;1.90;1.10;;;3.50;99.90;;;;;;4975614;28;20234;-75
2020/12/28 01:45:55;;;;;;;4.00;1.00;;;3.40;99.90;;;;;;4965765;28;20463;-75
2020/12/28 01:48:29;;;;;;;1.33;1.00;;;3.50;99.90;;;;;;4963994;28;20557;-76
2020/12/28 01:50:56;;;;;;;1.47;1.10;;;3.50;99.90;;;;;;4986630;28;20486;-76
2020/12/28 01:53:23;;;;;;;2.50;0.90;;;3.50;99.90;;;;;;4977607;28;20450;-76
2020/12/28 01:56:04;;;;;;;1.30;1.00;;;3.50;99.90;;;;;;4970104;28;20482;-76
2020/12/28 01:58:35;;;;;;;1.30;1.00;;;3.60;99.90;;;;;;4974086;28;20556;-76
2020/12/28 02:01:01;;;;;;;1.73;1.17;;;3.60;99.90;;;;;;4971994;28;20449;-77
2020/12/28 02:03:28;;;;;;;1.10;0.90;;;3.50;99.90;;;;;;4964248;28;20447;-76
2020/12/28 02:06:11;;;;;;;1.30;1.00;;;3.60;99.90;;;;;;4982871;28;21146;-76
2020/12/28 02:08:37;;;;;;;1.70;1.07;;;3.50;99.90;;;;;;4971947;28;20450;-76
2020/12/28 02:11:03;;;;;;;1.60;1.20;;;3.60;99.90;;;;;;4978239;28;20860;-75
2020/12/28 02:13:30;;;;;;;1.20;1.00;;;3.60;99.90;;;;;;4969451;28;20193;-75
2020/12/28 02:16:14;;;;;;;1.50;1.00;;;3.60;99.90;;;;;;4972039;28;20597;-76
2020/12/28 02:18:49;;;;;;;1.53;1.23;;;3.70;99.90;;;;;;4968586;28;20453;-76
2020/12/28 02:21:22;;;;;;;2.13;1.63;;;3.70;99.90;;;;;;4963184;28;20454;-76
2020/12/28 02:23:48;;;;;;;1.30;1.20;;;3.70;99.90;;;;;;4970840;28;20971;-76
2020/12/28 02:26:15;;;;;;;1.87;1.00;;;3.70;99.90;;;;;;4973636;28;20755;-76
2020/12/28 02:28:41;;;;;;;1.40;1.10;;;3.70;99.90;;;;;;4968507;28;21264;-75
2020/12/28 02:31:06;;;;;;;1.07;0.83;;;3.60;99.90;;;;;;4974109;28;20200;-76
2020/12/28 02:33:57;;;;;;;1.40;1.27;;;3.60;99.90;;;;;;4981483;28;20211;-76
2020/12/28 02:36:28;;;;;;;1.50;0.90;;;3.70;99.90;;;;;;4972531;28;20990;-76
2020/12/28 02:38:53;;;;;;;1.50;1.07;;;3.70;99.90;;;;;;4963462;28;20476;-76
2020/12/28 02:41:24;;;;;;;1.70;0.90;;;3.70;99.90;;;;;;4961061;28;20203;-76
2020/12/28 02:44:09;;;;;;;1.30;1.00;;;3.70;99.90;;;;;;4963930;28;21336;-76
2020/12/28 02:46:53;;;;;;;1.90;1.60;;;3.70;99.90;;;;;;4970190;28;20836;-76
2020/12/28 02:49:37;;;;;;;1.70;1.13;;;3.70;99.90;;;;;;4975045;28;20434;-76
2020/12/28 02:52:21;;;;;;;1.63;1.20;;;3.70;99.90;;;;;;4976653;28;20577;-76
2020/12/28 02:55:06;;;;;;;1.10;1.00;;;3.70;99.90;;;;;;4972195;28;20492;-76
2020/12/28 02:57:50;;;;;;;1.30;1.00;;;3.70;99.90;;;;;;4969003;28;20493;-77
2020/12/28 03:00:34;;;;;;;1.60;1.10;;;3.70;99.90;;;;;;4978279;28;20461;-76
2020/12/28 03:03:18;;;;;;;1.50;1.40;;;3.70;99.90;;;;;;4976347;28;20488;-76
2020/12/28 03:06:02;;;;;;;1.50;1.20;;;3.80;99.90;;;;;;4971797;28;21038;-76
2020/12/28 03:08:46;;;;;;;1.80;1.40;;;3.70;99.90;;;;;;4975765;28;20478;-75
2020/12/28 03:11:31;;;;;;;1.30;0.90;;;3.70;99.90;;;;;;4976308;28;20549;-76
2020/12/28 03:14:15;;;;;;;1.20;1.10;;;3.80;99.90;;;;;;4965188;28;20578;-76
2020/12/28 03:16:59;;;;;;;1.10;0.90;;;3.70;99.90;;;;;;4974071;28;20860;-76
2020/12/28 03:19:44;;;;;;;1.30;1.03;;;3.80;99.90;;;;;;4973556;28;21005;-76
2020/12/28 03:22:28;;;;;;;1.60;1.40;;;3.70;99.90;;;;;;4973784;28;20493;-76
2020/12/28 03:25:12;;;;;;;1.20;1.10;;;3.70;99.90;;;;;;4971013;28;20442;-76
2020/12/28 03:27:56;;;;;;;1.50;1.17;;;3.70;99.90;;;;;;4969180;28;20701;-76
2020/12/28 03:30:40;;;;;;;1.13;1.03;;;3.70;99.90;;;;;;4961934;28;20521;-76
2020/12/28 03:33:24;;;;;;;1.27;1.17;;;3.60;99.90;;;;;;4977610;28;20949;-76
2020/12/28 03:36:08;;;;;;;1.10;0.80;;;3.60;99.90;;;;;;4972815;28;21507;-75
2020/12/28 03:38:52;;;;;;;1.60;1.07;;;3.60;99.90;;;;;;4963436;28;20574;-75
2020/12/28 03:41:36;;;;;;;1.60;0.87;;;3.60;99.90;;;;;;4965501;28;20461;-75
2020/12/28 03:44:20;;;;;;;1.30;1.10;;;3.60;99.90;;;;;;4966817;28;21098;-76
2020/12/28 03:47:04;;;;;;;2.40;1.30;;;3.60;99.90;;;;;;4975778;28;20447;-75
2020/12/28 03:49:49;;;;;;;5.33;1.10;;;3.60;99.90;;;;;;4974468;28;20497;-76
2020/12/28 03:52:33;;;;;;;2.93;1.23;;;3.60;99.90;;;;;;4983105;28;20502;-77
2020/12/28 03:55:17;;;;;;;1.60;1.40;;;3.60;99.90;;;;;;4972633;28;21002;-76
2020/12/28 03:58:01;;;;;;;1.33;1.23;;;3.60;99.90;;;;;;4974850;28;21132;-76
2020/12/28 04:00:45;;;;;;;1.20;1.00;;;3.60;99.90;;;;;;4976646;28;20783;-76
2020/12/28 04:03:29;;;;;;;1.40;1.20;;;3.60;99.90;;;;;;4982548;28;20926;-76
2020/12/28 04:06:13;;;;;;;1.57;1.47;;;3.60;99.90;;;;;;4974399;28;20447;-76
2020/12/28 04:08:57;;;;;;;1.73;1.33;;;3.60;99.90;;;;;;4967256;28;21321;-76
2020/12/28 04:11:42;;;;;;;1.43;1.10;;;3.60;99.90;;;;;;4965376;28;20473;-76
2020/12/28 04:14:15;;;;;;;1.90;1.40;;;3.70;99.90;;;;;;4966830;28;20465;-76
2020/12/28 04:16:40;;;;;;;1.03;0.80;;;3.70;99.90;;;;;;4978410;28;20488;-76
2020/12/28 04:19:06;;;;;;;1.20;1.00;;;3.60;99.90;;;;;;4974070;28;20625;-76
2020/12/28 04:21:32;;;;;;;1.87;1.50;;;3.70;99.90;;;;;;4965368;28;20247;-76
2020/12/28 04:23:57;;;;;;;1.33;1.23;;;3.60;99.90;;;;;;4980275;28;20294;-75
2020/12/28 04:26:23;;;;;;;2.10;1.17;;;3.70;99.90;;;;;;4976603;28;20216;-75
2020/12/28 04:28:49;;;;;;;1.93;1.60;;;3.70;99.90;;;;;;4974643;28;20191;-75
2020/12/28 04:31:14;;;;;;;1.97;1.50;;;3.70;99.90;;;;;;4965531;28;20200;-76
2020/12/28 04:33:40;;;;;;;1.33;1.23;;;3.70;99.90;;;;;;4968951;28;20192;-76
2020/12/28 04:36:05;;;;;;;1.47;1.30;;;3.70;99.90;;;;;;4981997;28;21024;-77
2020/12/28 04:38:31;;;;;;;1.27;1.17;;;3.70;99.90;;;;;;4980204;28;20902;-76
2020/12/28 04:40:58;;;;;;;1.50;1.40;;;3.70;99.90;;;;;;4972475;28;21034;-76
2020/12/28 04:43:26;;;;;;;1.33;1.23;;;3.60;99.90;;;;;;4968787;28;20829;-76
2020/12/28 04:46:02;;;;;;;1.20;1.10;;;3.70;99.90;;;;;;4970850;28;22141;-76
2020/12/28 04:48:32;;;;;;;1.33;1.20;;;3.60;99.90;;;;;;4968623;28;20537;-75
2020/12/28 04:50:58;;;;;;;2.20;1.40;;;3.60;99.90;;;;;;4974320;28;20628;-75
2020/12/28 04:53:25;;;;;;;1.20;1.10;;;3.60;99.90;;;;;;4975898;28;20821;-75
2020/12/28 04:55:51;;;;;;;1.20;1.10;;;3.50;99.90;;;;;;4971294;28;20938;-76
2020/12/28 04:58:17;;;;;;;1.60;1.40;;;3.50;99.90;;;;;;4967062;28;20462;-76
2020/12/28 05:00:44;;;;;;;1.57;1.20;;;3.60;99.90;;;;;;4971869;28;20192;-76
2020/12/28 05:03:10;;;;;;;1.30;1.20;;;3.60;99.90;;;;;;4976641;28;20200;-76
2020/12/28 05:05:46;;;;;;;1.50;1.40;;;3.60;99.90;;;;;;4974006;28;25167;-76
2020/12/28 05:08:12;;;;;;;1.37;1.27;;;3.60;99.90;;;;;;4978123;28;20289;-76
2020/12/28 05:10:38;;;;;;;1.70;1.43;;;3.70;99.90;;;;;;4980201;28;20479;-76
2020/12/28 05:13:13;;;;;;;1.33;1.23;;;3.60;99.90;;;;;;4975780;28;20486;-76
2020/12/28 05:15:57;;;;;;;1.30;1.20;;;3.60;99.90;;;;;;4980392;28;20517;-76
2020/12/28 05:18:24;;;;;;;2.37;1.53;;;3.50;99.90;;;;;;4977868;28;20463;-76
2020/12/28 05:20:50;;;;;;;2.10;1.77;;;3.50;99.90;;;;;;4982392;28;20492;-76
2020/12/28 05:23:17;;;;;;;3.93;1.77;;;3.50;99.90;;;;;;4978471;28;20591;-76
2020/12/28 05:25:48;;;;;;;3.10;1.90;;;3.50;99.90;;;;;;4974831;28;20454;-76
2020/12/28 05:28:16;;;;;;;1.70;1.60;;;3.50;99.90;;;;;;4976000;28;20507;-76
2020/12/28 05:30:44;;;;;;;2.60;2.10;;;3.50;99.90;;;;;;4976305;28;20454;-76
2020/12/28 05:33:10;;;;;;;2.03;1.83;;;3.50;99.90;;;;;;4970761;28;21071;-76
2020/12/28 05:35:36;;;;;;;2.40;2.10;;;3.50;99.90;;;;;;4978410;28;20533;-76
2020/12/28 05:38:02;;;;;;;3.20;1.80;;;3.40;99.90;;;;;;4980004;28;20450;-76
2020/12/28 05:40:28;;;;;;;2.67;2.17;;;3.40;99.90;;;;;;4978320;28;20207;-76
2020/12/28 05:42:55;;;;;;;3.20;2.10;;;3.40;99.90;;;;;;4974549;28;21338;-76
2020/12/28 05:45:21;;;;;;;2.10;1.90;;;3.50;99.90;;;;;;4983641;28;20241;-76
2020/12/28 05:47:49;;;;;;;3.03;2.40;;;3.40;99.90;;;;;;4974155;28;20458;-75
2020/12/28 05:50:22;;;;;;;2.23;2.03;;;3.40;99.90;;;;;;4979938;28;21458;-76
2020/12/28 05:52:56;;;;;;;2.50;2.00;;;3.40;99.90;;;;;;4974847;28;20458;-76
2020/12/28 05:55:24;;;;;;;2.20;2.00;;;3.40;99.90;;;;;;4981544;28;20448;-76
2020/12/28 05:57:51;;;;;;;1.73;1.63;;;3.40;99.90;;;;;;4980915;28;20486;-76
2020/12/28 06:00:17;;;;;;;2.60;2.10;;;3.40;99.90;;;;;;4976558;28;20439;-76
2020/12/28 06:02:42;;;;;;;2.60;2.10;;;3.30;99.90;;;;;;4979325;28;20447;-76
2020/12/28 06:05:10;;;;;;;2.70;2.27;;;3.40;99.90;;;;;;4978298;28;22360;-76
2020/12/28 06:07:35;;;;;;;2.13;1.93;;;3.40;99.90;;;;;;4977623;28;20652;-76
2020/12/28 06:10:01;;;;;;;2.30;2.10;;;3.50;99.90;;;;;;4975523;28;20455;-76
2020/12/28 06:12:27;;;;;;;2.93;2.33;;;3.50;99.90;;;;;;4975630;28;20216;-76
2020/12/28 06:14:53;;;;;;;3.10;2.70;;;3.50;99.90;;;;;;4977907;28;20878;-76
2020/12/28 06:17:30;;;;;;;2.93;2.60;;;3.50;99.90;;;;;;4972797;28;20228;-76
2020/12/28 06:19:59;;;;;;;2.60;2.30;;;3.50;99.90;;;;;;4977106;28;20457;-76
2020/12/28 06:22:25;;;;;;;6.00;2.27;;;3.50;99.90;;;;;;4975952;28;20838;-76
2020/12/28 06:25:09;;;;;;;3.00;2.80;;;3.50;99.90;;;;;;4977228;28;20448;-76
2020/12/28 06:27:45;;;;;;;3.43;2.70;;;3.50;99.90;;;;;;4976382;28;20211;-76
2020/12/28 06:30:16;;;;;;;2.83;2.57;;;3.50;99.90;;;;;;4976121;28;20528;-76
2020/12/28 06:32:44;;;;;;;3.17;2.87;;;3.60;99.90;;;;;;4975955;28;20466;-76
2020/12/28 06:35:13;;;;;;;2.47;2.27;;;3.50;99.90;;;;;;4975622;28;20478;-76
2020/12/28 06:37:52;;;;;;;2.70;2.50;;;3.60;99.90;;;;;;4975129;28;20586;-76
2020/12/28 06:40:51;;;;;;;2.40;2.10;;;3.50;99.90;;;;;;4973932;28;20474;-76
2020/12/28 06:43:18;;;;;;;3.23;1.90;;;3.60;99.90;;;;;;4976370;28;20471;-76
2020/12/28 06:45:48;;;;;;;4.43;2.60;;;3.50;99.90;;;;;;4979113;28;20447;-76
2020/12/28 06:48:24;;;;;;;2.97;1.87;;;3.50;99.90;;;;;;4972821;28;20900;-76
2020/12/28 06:50:54;;;;;;;2.83;1.90;;;3.60;99.90;;;;;;4971882;28;20555;-76
2020/12/28 06:53:21;;;;;;;2.00;1.80;;;3.60;99.90;;;;;;4971342;28;21001;-76
2020/12/28 06:55:47;;;;;;;2.77;2.10;;;3.60;99.90;;;;;;4972512;28;20482;-76
2020/12/28 06:58:14;;;;;;;2.40;1.97;;;3.60;99.90;;;;;;4975862;28;20456;-76
2020/12/28 07:00:39;;;;;;;2.57;1.93;;;3.60;99.90;;;;;;4975828;28;20493;-76
2020/12/28 07:03:11;;;;;;;2.13;1.90;;;3.60;99.90;;;;;;4976610;28;21617;-76
2020/12/28 07:05:37;;;;;;;2.23;2.03;;;3.60;99.90;;;;;;4976770;28;20219;-76
2020/12/28 07:08:03;;;;;;;1.83;1.70;;;3.60;99.90;;;;;;4975587;28;21612;-76
2020/12/28 07:10:29;;;;;;;1.90;1.63;;;3.60;99.90;;;;;;4973229;28;20187;-76
2020/12/28 07:13:02;;;;;;;2.23;1.60;;;3.60;99.90;;;;;;4972038;28;20203;-76
2020/12/28 07:15:27;;;;;;;1.67;1.53;;;3.50;99.90;;;;;;4973627;28;20201;-76
2020/12/28 07:17:53;;;;;;;1.90;1.70;;;3.50;99.90;;;;;;4975703;28;20459;-76
2020/12/28 07:20:19;;;;;;;1.67;1.27;;;3.60;99.90;;;;;;4975526;28;20732;-76
2020/12/28 07:22:44;;;;;;;1.50;1.40;;;3.60;99.90;;;;;;4977066;28;20191;-76
2020/12/28 07:25:12;;;;;;;5.60;1.40;;;3.60;99.90;;;;;;4982915;28;20244;-75
2020/12/28 07:27:42;;;;;;;1.73;1.30;;;3.50;99.90;;;;;;4969848;28;20476;-76
2020/12/28 07:30:13;;;;;;;2.90;1.97;;;3.60;99.90;;;;;;4975605;28;20448;-76
2020/12/28 07:32:40;;;;;;;1.47;1.00;;;3.50;99.90;;;;;;4968382;28;20479;-76
2020/12/28 07:35:07;;;;;;;1.93;1.23;;;3.50;99.90;;;;;;4971048;28;20830;-76
2020/12/28 07:37:37;;;;;;;1.60;1.40;;;3.40;99.90;;;;;;4973506;28;20488;-76
2020/12/28 07:40:04;;;;;;;1.73;1.30;;;3.40;99.90;;;;;;4962237;28;22777;-76
2020/12/28 07:42:29;;;;;;;2.83;0.97;;;3.40;99.90;;;;;;4959064;28;21068;-76
2020/12/28 07:45:00;;;;;;;1.20;1.10;;;3.30;99.90;;;;;;4973774;28;20467;-76
2020/12/28 07:47:48;;;;;;;1.53;1.43;;;3.30;99.90;;;;;;4972563;28;20191;-76
2020/12/28 07:50:16;;;;;;;1.40;1.20;;;3.30;99.90;;;;;;4974725;28;20546;-76
2020/12/28 07:52:57;;;;;;;1.83;1.30;;;3.30;99.90;;;;;;4973591;28;20583;-76
2020/12/28 07:55:26;;;;;;;1.47;1.37;;;3.40;99.90;;;;;;4976176;28;20474;-76
2020/12/28 07:58:21;;;;;;;3.60;1.23;;;3.40;99.90;;;;;;4964606;28;20545;-76
2020/12/28 08:00:48;;;;;;;6.47;1.17;;;3.40;99.90;;;;;;4966705;28;20497;-76
2020/12/28 08:03:34;;;;;;;1.43;1.33;;;3.40;99.90;;;;;;4970806;28;20947;-76
2020/12/28 08:06:04;;;;;;;1.63;1.13;;;3.40;99.90;;;;;;4978778;28;21066;-76
2020/12/28 08:08:30;;;;;;;1.53;1.40;;;3.40;99.90;;;;;;4977169;28;20464;-75
2020/12/28 08:11:03;;;;;;;4.13;1.47;;;3.40;99.90;;;;;;4976260;28;20445;-76
2020/12/28 08:13:33;;;;;;;1.20;1.10;;;3.40;99.90;;;;;;4989612;28;20261;-76
2020/12/28 08:16:13;;;;;;;1.43;1.27;;;3.40;99.90;;;;;;4961672;28;20482;-75
2020/12/28 08:18:50;;;;;;;1.53;1.10;;;3.40;99.90;;;;;;4964054;28;20493;-76
2020/12/28 08:21:16;;;;;;;2.10;1.00;;;3.40;99.90;;;;;;4978803;28;20604;-76
2020/12/28 08:23:55;;;;;;;1.20;0.90;;;3.40;99.90;;;;;;4973886;28;20563;-75
2020/12/28 08:26:29;;;;;;;2.03;1.10;;;3.40;99.90;;;;;;4972953;28;20648;-75
2020/12/28 08:28:56;;;;;;;4.70;1.00;;;3.30;99.90;;;;;;4979614;28;20466;-75
2020/12/28 08:31:30;;;;;;;1.57;1.20;;;3.30;99.90;;;;;;4971210;28;20463;-76
2020/12/28 08:34:03;;;;;;;1.20;1.00;;;3.20;99.90;;;;;;4976490;28;20889;-76
2020/12/28 08:36:30;;;;;;;2.57;1.00;;;3.30;99.90;;;;;;4974384;28;20470;-76
2020/12/28 08:38:56;;;;;;;1.30;1.20;;;3.30;99.90;;;;;;4976344;28;20498;-76
2020/12/28 08:41:21;;;;;;;1.77;1.00;;;3.30;99.90;;;;;;4966487;28;20563;-75
2020/12/28 08:43:48;;;;;;;4.80;1.20;;;3.40;99.90;;;;;;4973105;28;20477;-75
2020/12/28 08:46:14;;;;;;;1.40;1.07;;;3.50;99.90;;;;;;4972559;28;20206;-76
2020/12/28 08:48:47;;;;;;;2.70;1.00;;;3.50;99.90;;;;;;4975836;28;20522;-75
2020/12/28 08:51:14;;;;;;;2.07;1.23;;;3.50;99.90;;;;;;4976141;28;20453;-74
2020/12/28 08:53:48;;;;;;;1.33;0.90;;;3.50;99.90;;;;;;4972558;28;20476;-75
2020/12/28 08:56:13;;;;;;;2.30;1.20;;;3.50;99.90;;;;;;4980180;28;20513;-75
2020/12/28 08:58:39;;;;;;;1.50;1.00;;;3.50;99.90;;;;;;4977343;28;20748;-75
2020/12/28 09:01:05;;;;;;;3.63;1.73;;;3.60;99.90;;;;;;4972381;28;20199;-75
2020/12/28 09:03:34;;;;;;;1.00;0.70;;;3.70;99.90;;;;;;4980888;28;21045;-74
2020/12/28 09:06:00;;;;;;;1.50;0.90;;;3.70;99.90;;;;;;4974147;28;20490;-74
2020/12/28 09:08:27;;;;;;;3.10;1.17;;;3.70;99.90;;;;;;4975549;28;21215;-75
2020/12/28 09:10:53;;;;;;;5.87;1.20;;;3.80;99.90;;;;;;4977330;28;20804;-75
2020/12/28 09:13:18;;;;;;;1.63;1.20;;;3.80;99.90;;;;;;4972522;28;20575;-75
2020/12/28 09:15:44;;;;;;;1.63;0.80;;;3.80;99.90;;;;;;4985073;28;20242;-74
2020/12/28 09:18:09;;;;;;;1.67;1.23;;;3.90;99.90;;;;;;4973926;28;20282;-74
2020/12/28 09:20:35;;;;;;;2.90;1.10;;;3.90;99.90;;;;;;4975813;28;20196;-73
2020/12/28 09:23:01;;;;;;;2.57;1.17;;;3.90;99.90;;;;;;4979122;28;21002;-74
2020/12/28 09:25:26;;;;;;;4.90;0.93;;;3.90;99.90;;;;;;4969734;28;20195;-74
2020/12/28 09:27:52;;;;;;;3.90;1.00;;;3.90;99.90;;;;;;4973989;28;20264;-74
2020/12/28 09:30:18;;;;;;;3.03;1.03;;;3.80;99.90;;;;;;4977232;28;20560;-75
2020/12/28 09:32:43;;;;;;;2.43;1.10;;;3.80;99.90;;;;;;4973772;28;20244;-74
2020/12/28 09:35:09;;;;;;;1.67;0.90;;;3.70;99.90;;;;;;4969524;28;20452;-74
2020/12/28 09:37:35;;;;;;;3.33;1.00;;;3.90;99.90;;;;;;4972699;28;20774;-74
2020/12/28 09:40:01;;;;;;;1.53;1.10;;;3.90;99.90;;;;;;4968673;28;20616;-74
2020/12/28 09:42:27;;;;;;;1.57;1.27;;;4.00;99.90;;;;;;4970526;28;20482;-74
2020/12/28 09:44:53;;;;;;;3.77;1.23;;;4.00;99.90;;;;;;4967451;28;20995;-74
2020/12/28 09:47:18;;;;;;;1.60;0.93;;;4.00;99.90;;;;;;4975267;28;20231;-74
2020/12/28 09:49:45;;;;;;;1.93;1.00;;;4.00;99.90;;;;;;4977315;28;20670;-74
2020/12/28 09:52:11;;;;;;;1.30;1.07;;;4.00;99.90;;;;;;4973378;28;20525;-74
2020/12/28 09:54:36;;;;;;;1.53;1.07;;;4.10;99.90;;;;;;4971154;28;20467;-74
2020/12/28 09:57:06;;;;;;;1.80;1.20;;;4.10;99.90;;;;;;4972558;28;21618;-74
2020/12/28 09:59:37;;;;;;;2.70;1.10;;;4.20;99.90;;;;;;4973103;28;20192;-73
2020/12/28 10:02:04;;;;;;;1.20;1.10;;;4.20;99.90;;;;;;4976015;28;21084;-74
2020/12/28 10:04:30;;;;;;;1.13;1.00;;;4.30;99.90;;;;;;4970167;28;20449;-73
2020/12/28 10:06:56;;;;;;;1.50;1.10;;;4.30;99.90;;;;;;4969699;28;20955;-73
2020/12/28 10:09:21;;;;;;;2.10;1.00;;;4.30;99.90;;;;;;4975177;28;21048;-73
2020/12/28 10:11:47;;;;;;;1.10;0.90;;;4.30;99.90;;;;;;4968006;28;21751;-73
2020/12/28 10:14:14;;;;;;;1.33;0.90;;;4.30;99.90;;;;;;4972011;28;20192;-73
2020/12/28 10:16:40;;;;;;;1.20;1.00;;;4.20;1.00;;;;;;4973769;28;20515;-72
2020/12/28 10:19:06;;;;;;;1.00;0.80;;;4.20;99.90;;;;;;4972670;28;20443;-74
2020/12/28 10:21:31;;;;;;;2.07;1.87;;;4.20;99.90;;;;;;4963543;28;21049;-73
2020/12/28 10:23:57;;;;;;;2.17;0.93;;;4.20;99.90;;;;;;4958024;28;20631;-72
2020/12/28 10:26:25;;;;;;;2.53;1.27;;;4.10;99.90;;;;;;4966247;28;20236;-73
2020/12/28 10:28:52;;;;;;;2.50;1.23;;;4.20;99.90;;;;;;4961097;28;20212;-73
2020/12/28 10:31:19;;;;;;;4.53;1.10;;;4.10;99.90;;;;;;4967032;28;20899;-73
2020/12/28 10:33:45;;;;;;;5.90;1.67;;;4.00;99.90;;;;;;4959644;28;20454;-72
2020/12/28 10:36:19;;;;;;;1.87;1.17;;;3.90;99.90;;;;;;4965497;28;20995;-72
2020/12/28 10:38:49;;;;;;;1.20;1.03;;;3.80;99.90;;;;;;4964680;28;20459;-73
2020/12/28 10:41:15;;;;;;;1.10;0.90;;;3.90;99.90;;;;;;4962809;28;20789;-73
2020/12/28 10:43:41;;;;;;;1.97;1.30;;;3.90;99.90;;;;;;4965927;28;20816;-72
2020/12/28 10:46:08;;;;;;;1.80;1.10;;;3.90;99.90;;;;;;4970057;28;20479;-73
2020/12/28 10:48:34;;;;;;;1.73;1.30;;;4.00;99.90;;;;;;4967017;28;20197;-72
2020/12/28 10:51:01;;;;;;;1.70;1.07;;;4.00;99.90;;;;;;4973173;28;20458;-73
2020/12/28 10:53:26;;;;;;;2.23;1.10;;;4.00;99.90;;;;;;4970196;28;20977;-73
2020/12/28 10:55:52;;;;;;;2.33;1.20;;;4.00;91.00;;;;;;4971591;28;20476;-73
2020/12/28 10:58:17;;;;;;;2.10;1.23;;;4.10;90.70;;;;;;4972505;28;21125;-73
2020/12/28 11:00:43;;;;;;;1.57;1.10;;;4.00;44.00;;;;;;4978713;28;20188;-73
2020/12/28 11:03:09;;;;;;;4.23;1.13;;;4.10;70.60;;;;;;4980493;28;20196;-73
2020/12/28 11:05:34;;;;;;;2.33;1.10;;;4.10;99.90;;;;;;4969932;28;21561;-72
2020/12/28 11:08:00;;;;;;;2.83;1.10;;;4.20;61.20;;;;;;4977573;28;20999;-75
2020/12/28 11:10:26;;;;;;;2.03;0.77;;;4.20;69.20;;;;;;4969567;28;20558;-74
2020/12/28 11:12:51;;;;;;;3.07;1.20;;;4.20;52.20;;;;;;4968577;28;20941;-73
2020/12/28 11:15:17;;;;;;;1.37;1.20;;;4.30;50.20;;;;;;4969164;28;20184;-74
2020/12/28 11:17:43;;;;;;;1.90;1.03;;;4.20;55.00;;;;;;4980159;28;20590;-74
2020/12/28 11:20:09;;;;;;;2.83;1.30;;;4.20;49.60;;;;;;4981799;28;20258;-74
2020/12/28 11:22:36;;;;;;;3.90;2.33;;;4.30;49.10;;;;;;4978600;28;20193;-74
2020/12/28 11:25:03;;;;;;;2.50;1.10;;;4.30;35.10;;;;;;4961104;28;20461;-74
2020/12/28 11:27:30;;;;;;;9.00;1.27;;;4.30;67.70;;;;;;4970860;28;20488;-74
2020/12/28 11:29:57;;;;;;;1.40;0.97;;;4.30;58.40;;;;;;4975803;28;20453;-74
2020/12/28 11:32:23;;;;;;;1.93;1.20;;;4.30;18.90;;;;;;5002542;28;21110;-74
2020/12/28 11:34:49;;;;;;;1.67;1.10;;;4.40;26.70;;;;;;4968676;28;20487;-74
2020/12/28 11:37:14;;;;;;;2.90;1.07;;;4.40;12.30;;;;;;4971106;28;20395;-74
2020/12/28 11:39:40;;;;;;;2.60;1.10;;;4.50;14.30;;;;;;4984484;28;20713;-76
2020/12/28 11:42:06;;;;;;;1.47;1.00;;;4.50;4.30;;;;;;4982607;28;20327;-74
2020/12/28 11:44:31;;;;;;;2.23;1.20;;;4.60;4.40;;;;;;4981728;28;20972;-76
2020/12/28 11:46:57;;;;;;;2.20;1.10;;;4.60;1.00;;;;;;4981248;28;20239;-74
2020/12/28 11:49:23;;;;;;;2.30;1.30;;;4.60;1.00;;;;;;4988131;28;21239;-73
2020/12/28 11:51:53;;;;;;;2.23;1.40;;;4.60;1.00;;;;;;4992327;28;20219;-74
2020/12/28 11:54:20;;;;;;;2.30;1.10;;;4.60;1.00;;;;;;4998463;28;20505;-73
2020/12/28 11:56:45;;;;;;;4.17;1.50;;;4.60;1.00;;;;;;4987525;28;22137;-74
2020/12/28 11:59:11;;;;;;;2.07;1.23;;;4.70;19.20;;;;;;4995108;28;20561;-74
2020/12/28 12:01:37;;;;;;;1.70;1.27;;;4.70;5.10;;;;;;4993237;28;20200;-74
2020/12/28 12:04:03;;;;;;;1.97;0.80;;;4.70;1.00;;;;;;5007713;28;20197;-74
2020/12/28 12:06:28;;;;;;;2.83;1.20;;;4.60;1.00;;;;;;4983499;28;20203;-74
2020/12/28 12:11:36;;;;;;;1.90;1.20;;;4.70;1.00;;;;;;4988262;28;20299;-75
2020/12/28 12:14:03;;;;;;;2.50;1.27;;;4.90;1.00;;;;;;4985255;28;22960;-75
2020/12/28 12:16:29;;;;;;;1.80;1.13;;;5.00;1.00;;;;;;4980766;28;20552;-74
2020/12/28 12:18:55;;;;;;;1.30;1.00;;;5.20;1.00;;;;;;4982370;28;20451;-74
2020/12/28 12:21:21;;;;;;;2.00;1.23;;;5.40;1.00;;;;;;4992838;28;20291;-74
2020/12/28 12:23:46;;;;;;;5.70;1.13;;;5.50;1.00;;;;;;4990373;28;21573;-74
2020/12/28 12:26:12;;;;;;;2.40;1.07;;;5.50;1.00;;;;;;4983903;28;20453;-75
2020/12/28 12:28:38;;;;;;;3.63;1.33;;;5.50;1.00;;;;;;4985819;28;20203;-74
2020/12/28 12:31:04;;;;;;;1.63;1.20;;;5.50;1.00;;;;;;4987580;28;21163;-75
2020/12/28 12:33:29;;;;;;;2.33;1.57;;;5.60;1.00;;;;;;4989360;28;20213;-75
2020/12/28 12:35:55;;;;;;;4.13;1.40;;;5.60;1.00;;;;;;4987577;28;20185;-75
2020/12/28 12:38:21;;;;;;;3.13;1.17;;;5.60;1.00;;;;;;4984246;28;20246;-74
2020/12/28 12:40:47;;;;;;;1.87;1.50;;;5.70;1.00;;;;;;4986662;28;20765;-74
2020/12/28 12:43:13;;;;;;;1.83;1.40;;;5.70;1.00;;;;;;4978553;28;20483;-75
2020/12/28 12:45:38;;;;;;;1.97;1.37;;;5.60;1.00;;;;;;4983346;28;20278;-74
2020/12/28 12:48:04;;;;;;;1.90;1.50;;;5.60;1.00;;;;;;4975851;28;20284;-75
2020/12/28 12:50:30;;;;;;;2.07;1.40;;;5.60;1.00;;;;;;4980585;28;20201;-75
2020/12/28 12:52:55;;;;;;;3.57;1.40;;;5.70;1.00;;;;;;4977784;28;20220;-76
2020/12/28 12:55:21;;;;;;;1.90;1.60;;;5.60;1.00;;;;;;4988210;28;20204;-76
2020/12/28 12:57:47;;;;;;;2.23;1.17;;;5.60;1.00;;;;;;4973399;28;20385;-76
2020/12/28 13:00:17;;;;;;;2.10;1.70;;;5.50;1.00;;;;;;4969410;28;20207;-76
2020/12/28 13:02:44;;;;;;;4.90;1.63;;;5.50;1.00;;;;;;4964887;28;20189;-76
2020/12/28 13:05:11;;;;;;;2.53;1.63;;;5.50;1.00;;;;;;4982303;28;20505;-76
2020/12/28 13:07:40;;;;;;;1.83;1.53;;;5.50;1.00;;;;;;4986018;28;20449;-76
2020/12/28 13:10:08;;;;;;;2.07;1.57;;;5.40;1.00;;;;;;4997453;28;20467;-76
2020/12/28 13:12:34;;;;;;;2.33;1.40;;;5.40;1.00;;;;;;5004408;28;20459;-76
2020/12/28 13:15:00;;;;;;;1.90;1.20;;;5.50;1.00;;;;;;4996808;28;20456;-76